createdAt,value
2018-06-19T00:01:25.577Z,24.77
2018-06-19T00:03:54.841Z,23.10
2018-06-19T00:06:24.354Z,21.60
2018-06-19T00:08:53.883Z,22.57
2018-06-19T00:11:23.319Z,24.00
2018-06-19T00:13:52.828Z,23.23
2018-06-19T00:16:22.387Z,23.03
2018-06-19T00:18:57.492Z,24.60
2018-06-19T00:21:48.415Z,22.40
2018-06-19T00:24:18.133Z,25.60
2018-06-19T00:26:47.987Z,24.67
2018-06-19T00:29:17.393Z,23.37
2018-06-19T00:31:46.601Z,22.17
2018-06-19T00:34:16.125Z,22.73
2018-06-19T00:36:45.877Z,24.13
2018-06-19T00:39:15.503Z,24.97
2018-06-19T00:41:45.380Z,24.03
2018-06-19T00:44:14.987Z,22.77
2018-06-19T00:46:48.513Z,23.53
2018-06-19T00:49:18.516Z,24.23
2018-06-19T00:51:48.075Z,24.50
2018-06-19T00:54:17.539Z,25.00
2018-06-19T00:56:56.803Z,23.20
2018-06-19T00:59:26.269Z,23.77
2018-06-19T01:01:58.626Z,22.93
2018-06-19T01:04:28.533Z,23.40
2018-06-19T01:06:58.114Z,21.97
2018-06-19T01:09:27.400Z,22.50
2018-06-19T01:11:56.682Z,22.77
2018-06-19T01:14:26.212Z,22.73
2018-06-19T01:16:55.335Z,23.77
2018-06-19T01:19:25.104Z,22.37
2018-06-19T01:21:55.829Z,22.13
2018-06-19T01:24:25.309Z,23.97
2018-06-19T01:26:54.962Z,23.10
2018-06-19T01:29:25.645Z,22.60
2018-06-19T01:31:56.061Z,22.30
2018-06-19T01:34:25.527Z,22.00
2018-06-19T01:36:55.129Z,19.90
2018-06-19T01:39:25.626Z,22.43
2018-06-19T01:41:55.233Z,21.20
2018-06-19T01:44:24.766Z,21.97
2018-06-19T01:46:54.899Z,22.67
2018-06-19T01:49:25.190Z,22.00
2018-06-19T01:51:54.610Z,21.77
2018-06-19T01:54:24.661Z,22.30
2018-06-19T01:56:53.836Z,20.13
2018-06-19T01:59:23.277Z,23.20
2018-06-19T02:01:52.747Z,23.00
2018-06-19T02:04:22.249Z,22.40
2018-06-19T02:06:52.081Z,21.20
2018-06-19T02:09:22.189Z,22.53
2018-06-19T02:11:51.747Z,24.90
2018-06-19T02:14:21.214Z,24.47
2018-06-19T02:16:50.786Z,22.00
2018-06-19T02:19:20.298Z,25.80
2018-06-19T02:21:49.790Z,21.60
2018-06-19T02:24:19.462Z,22.50
2018-06-19T02:26:49.549Z,22.47
2018-06-19T02:29:19.048Z,23.10
2018-06-19T02:31:49.077Z,21.90
2018-06-19T02:34:18.569Z,22.63
2018-06-19T02:36:48.066Z,21.93
2018-06-19T02:39:17.516Z,20.17
2018-06-19T02:41:46.823Z,20.00
2018-06-19T02:44:16.310Z,20.00
2018-06-19T02:46:45.817Z,22.73
2018-06-19T02:49:15.426Z,21.10
2018-06-19T02:51:45.008Z,22.40
2018-06-19T02:54:14.475Z,22.60
2018-06-19T02:56:43.645Z,21.70
2018-06-19T02:59:13.140Z,22.57
2018-06-19T03:01:42.869Z,21.77
2018-06-19T03:04:12.056Z,23.30
2018-06-19T03:06:41.576Z,23.37
2018-06-19T03:09:11.762Z,26.17
2018-06-19T03:11:41.241Z,24.10
2018-06-19T03:14:10.753Z,22.30
2018-06-19T03:16:40.309Z,21.60
2018-06-19T03:19:09.749Z,24.80
2018-06-19T03:21:39.318Z,24.20
2018-06-19T03:24:08.833Z,23.97
2018-06-19T03:26:38.038Z,22.83
2018-06-19T03:29:07.363Z,23.20
2018-06-19T03:31:36.834Z,22.50
2018-06-19T03:34:06.849Z,21.53
2018-06-19T03:36:36.749Z,24.17
2018-06-19T03:39:10.524Z,23.83
2018-06-19T03:41:40.185Z,22.90
2018-06-19T03:44:10.099Z,23.43
2018-06-19T03:46:39.559Z,23.50
2018-06-19T03:49:09.083Z,21.83
2018-06-19T03:51:39.318Z,24.10
2018-06-19T03:54:08.770Z,21.97
2018-06-19T03:56:38.246Z,22.20
2018-06-19T03:59:07.722Z,24.53
2018-06-19T04:01:37.185Z,22.50
2018-06-19T04:04:07.161Z,25.23
2018-06-19T04:06:36.637Z,26.20
2018-06-19T04:09:08.907Z,23.70
2018-06-19T04:11:38.612Z,22.27
2018-06-19T04:14:08.164Z,23.77
2018-06-19T04:16:37.763Z,21.87
2018-06-19T04:19:07.371Z,24.90
2018-06-19T04:21:36.971Z,23.87
2018-06-19T04:24:06.707Z,23.20
2018-06-19T04:26:36.384Z,25.00
2018-06-19T04:29:05.966Z,23.07
2018-06-19T04:31:35.431Z,23.73
2018-06-19T04:34:04.952Z,24.00
2018-06-19T04:36:34.827Z,23.63
2018-06-19T04:39:06.568Z,22.50
2018-06-19T04:41:36.022Z,21.27
2018-06-19T04:44:06.331Z,20.53
2018-06-19T04:46:36.835Z,20.93
2018-06-19T04:49:06.345Z,21.70
2018-06-19T04:51:35.971Z,19.53
2018-06-19T04:54:05.476Z,20.50
2018-06-19T04:56:34.897Z,21.20
2018-06-19T04:59:04.352Z,21.27
2018-06-19T05:01:34.110Z,20.40
2018-06-19T05:04:03.573Z,21.60
2018-06-19T05:06:33.366Z,20.73
2018-06-19T05:09:03.381Z,20.40
2018-06-19T05:11:32.993Z,19.00
2018-06-19T05:14:02.442Z,19.33
2018-06-19T05:16:31.946Z,18.83
2018-06-19T05:19:01.430Z,18.87
2018-06-19T05:21:30.908Z,19.47
2018-06-19T05:24:00.289Z,20.20
2018-06-19T05:26:29.864Z,18.20
2018-06-19T05:29:00.797Z,20.57
2018-06-19T05:31:30.747Z,19.67
2018-06-19T05:34:00.816Z,20.97
2018-06-19T05:36:30.442Z,17.17
2018-06-19T05:38:59.920Z,18.73
2018-06-19T05:41:29.450Z,17.37
2018-06-19T05:43:58.969Z,17.63
2018-06-19T05:46:28.610Z,18.17
2018-06-19T05:48:58.632Z,17.70
2018-06-19T05:51:28.151Z,18.83
2018-06-19T05:53:57.540Z,16.80
2018-06-19T05:56:27.109Z,17.53
2018-06-19T05:58:56.569Z,16.97
2018-06-19T06:01:27.445Z,16.50
2018-06-19T06:05:26.250Z,18.57
2018-06-19T06:07:55.791Z,16.20
2018-06-19T06:10:25.479Z,16.27
2018-06-19T06:12:55.442Z,16.10
2018-06-19T06:15:24.625Z,15.07
2018-06-19T06:17:54.635Z,16.10
2018-06-19T06:20:24.097Z,16.47
2018-06-19T06:22:53.997Z,15.67
2018-06-19T06:25:23.545Z,15.07
2018-06-19T06:27:53.097Z,16.83
2018-06-19T06:30:22.379Z,15.53
2018-06-19T06:32:52.551Z,14.97
2018-06-19T06:35:21.990Z,14.07
2018-06-19T06:37:53.869Z,14.57
2018-06-19T06:40:23.390Z,14.23
2018-06-19T06:42:53.605Z,13.07
2018-06-19T06:45:24.155Z,15.23
2018-06-19T06:47:54.346Z,13.60
2018-06-19T06:50:23.865Z,12.87
2018-06-19T06:52:54.333Z,12.70
2018-06-19T06:55:23.951Z,14.07
2018-06-19T06:57:54.033Z,12.20
2018-06-19T07:00:23.748Z,12.80
2018-06-19T07:02:53.331Z,12.03
2018-06-19T07:05:22.929Z,12.00
2018-06-19T07:07:52.395Z,12.90
2018-06-19T07:10:22.514Z,11.27
2018-06-19T07:12:52.037Z,12.27
2018-06-19T07:15:21.669Z,11.87
2018-06-19T07:17:51.301Z,11.30
2018-06-19T07:20:20.714Z,10.47
2018-06-19T07:22:50.714Z,11.00
2018-06-19T07:25:20.237Z,9.90
2018-06-19T07:27:50.027Z,9.90
2018-06-19T07:30:19.609Z,10.73
2018-06-19T07:32:49.325Z,9.93
2018-06-19T07:35:18.865Z,10.03
2018-06-19T07:37:48.869Z,9.20
2018-06-19T07:40:18.465Z,10.73
2018-06-19T07:42:47.992Z,10.97
2018-06-19T07:45:17.595Z,10.20
2018-06-19T07:47:47.723Z,10.80
2018-06-19T07:50:17.219Z,10.37
2018-06-19T07:52:46.752Z,11.13
2018-06-19T07:55:16.645Z,10.53
2018-06-19T07:57:46.701Z,11.10
2018-06-19T08:00:16.262Z,9.73
2018-06-19T08:02:46.679Z,9.67
2018-06-19T08:05:16.162Z,8.83
2018-06-19T08:07:45.828Z,8.60
2018-06-19T08:10:16.914Z,8.00
2018-06-19T08:12:47.697Z,8.00
2018-06-19T08:15:17.906Z,7.87
2018-06-19T08:17:48.640Z,7.87
2018-06-19T08:20:18.701Z,7.93
2018-06-19T08:22:48.000Z,8.83
2018-06-19T08:26:47.385Z,8.60
2018-06-19T08:29:17.161Z,8.83
2018-06-19T08:31:49.420Z,7.30
2018-06-19T08:34:19.610Z,7.07
2018-06-19T08:36:49.215Z,8.67
2018-06-19T08:39:18.764Z,8.10
2018-06-19T08:41:48.312Z,7.90
2018-06-19T08:44:18.034Z,6.67
2018-06-19T08:46:47.611Z,6.17
2018-06-19T08:49:18.071Z,6.10
2018-06-19T08:51:47.514Z,6.87
2018-06-19T08:54:17.745Z,6.50
2018-06-19T08:56:47.359Z,6.17
2018-06-19T08:59:17.012Z,6.00
2018-06-19T09:01:46.939Z,6.57
2018-06-19T09:04:16.486Z,6.00
2018-06-19T09:06:46.049Z,5.60
2018-06-19T09:09:15.743Z,7.43
2018-06-19T09:11:45.359Z,7.87
2018-06-19T09:14:15.054Z,8.13
2018-06-19T09:16:44.575Z,8.13
2018-06-19T09:19:14.166Z,8.60
2018-06-19T09:21:44.727Z,7.83
2018-06-19T09:24:16.389Z,7.50
2018-06-19T09:26:47.039Z,8.67
2018-06-19T09:29:17.169Z,8.93
2018-06-19T09:31:47.010Z,9.13
2018-06-19T09:34:16.570Z,9.10
2018-06-19T09:36:46.794Z,8.80
2018-06-19T09:39:16.682Z,9.13
2018-06-19T09:41:46.344Z,9.50
2018-06-19T09:44:16.115Z,10.40
2018-06-19T09:46:46.161Z,10.73
2018-06-19T09:49:15.429Z,9.90
2018-06-19T09:51:46.885Z,11.47
2018-06-19T09:54:16.365Z,11.40
2018-06-19T09:56:45.844Z,11.20
2018-06-19T09:59:17.276Z,13.33
2018-06-19T10:01:47.844Z,13.70
2018-06-19T10:04:17.301Z,13.20
2018-06-19T10:06:47.390Z,15.50
2018-06-19T10:09:17.305Z,15.00
2018-06-19T10:11:47.052Z,14.13
2018-06-19T10:14:17.144Z,13.80
2018-06-19T10:16:46.728Z,14.57
2018-06-19T10:19:16.560Z,14.67
2018-06-19T10:21:46.196Z,15.10
2018-06-19T10:24:15.808Z,14.77
2018-06-19T10:26:45.467Z,14.37
2018-06-19T10:29:15.058Z,13.73
2018-06-19T10:31:44.690Z,13.50
2018-06-19T10:34:14.251Z,13.67
2018-06-19T10:36:43.769Z,15.07
2018-06-19T10:39:12.935Z,14.93
2018-06-19T10:41:42.410Z,14.53
2018-06-19T10:44:11.937Z,13.53
2018-06-19T10:46:41.477Z,14.27
2018-06-19T10:49:10.902Z,14.50
2018-06-19T10:51:40.448Z,12.63
2018-06-19T10:54:10.411Z,12.77
2018-06-19T10:56:40.741Z,14.40
2018-06-19T10:59:10.181Z,14.03
2018-06-19T11:01:40.136Z,13.87
2018-06-19T11:04:09.578Z,13.50
2018-06-19T11:06:38.847Z,13.97
2018-06-19T11:09:11.921Z,11.97
2018-06-19T11:11:42.160Z,13.07
2018-06-19T11:14:12.147Z,13.30
2018-06-19T11:16:41.742Z,11.03
2018-06-19T11:19:11.294Z,12.67
2018-06-19T11:21:40.676Z,11.20
2018-06-19T11:24:10.149Z,10.00
2018-06-19T11:26:39.599Z,11.50
2018-06-19T11:29:09.099Z,11.40
2018-06-19T11:31:38.594Z,10.30
2018-06-19T11:34:08.217Z,9.70
2018-06-19T11:36:38.667Z,7.57
2018-06-19T11:39:11.550Z,7.87
2018-06-19T11:41:41.164Z,7.87
2018-06-19T11:44:10.848Z,7.60
2018-06-19T11:46:40.929Z,7.60
2018-06-19T11:49:11.732Z,7.63
2018-06-19T11:51:42.054Z,7.30
2018-06-19T11:54:11.716Z,8.23
2018-06-19T11:56:41.531Z,7.73
2018-06-19T11:59:11.274Z,7.43
2018-06-19T12:01:40.722Z,6.43
2018-06-19T12:04:10.643Z,7.80
2018-06-19T12:06:40.346Z,7.00
2018-06-19T12:09:10.778Z,7.40
2018-06-19T12:11:41.579Z,6.60
2018-06-19T12:14:12.120Z,7.67
2018-06-19T12:16:46.497Z,6.20
2018-06-19T12:19:16.636Z,5.63
2018-06-19T12:21:46.628Z,5.63
2018-06-19T12:24:17.049Z,5.10
2018-06-19T12:26:46.830Z,3.43
2018-06-19T12:29:16.338Z,3.40
2018-06-19T12:31:45.688Z,2.90
2018-06-19T12:34:15.135Z,4.03
2018-06-19T12:36:44.715Z,3.00
2018-06-19T12:39:14.328Z,3.40
2018-06-19T12:41:46.223Z,3.20
2018-06-19T12:44:16.417Z,3.20
2018-06-19T12:46:46.261Z,3.20
2018-06-19T12:50:23.993Z,3.40
2018-06-19T12:54:08.503Z,4.00
2018-06-19T12:56:38.002Z,4.60
2018-06-19T12:59:07.418Z,3.60
2018-06-19T13:01:36.970Z,3.43
2018-06-19T13:04:23.398Z,3.47
2018-06-19T13:06:52.853Z,2.70
2018-06-19T13:09:22.263Z,2.00
2018-06-19T13:11:51.944Z,2.23
2018-06-19T13:14:37.383Z,2.43
2018-06-19T13:17:23.822Z,2.60
2018-06-19T13:20:10.715Z,2.23
2018-06-19T13:22:40.210Z,2.70
2018-06-19T13:25:09.612Z,2.20
2018-06-19T13:27:39.234Z,1.50
2018-06-19T13:30:25.698Z,2.00
2018-06-19T13:32:54.885Z,2.13
2018-06-19T13:35:25.619Z,2.60
2018-06-19T13:37:55.638Z,2.57
2018-06-19T13:41:16.450Z,2.80
2018-06-19T13:44:04.761Z,2.93
2018-06-19T13:46:34.869Z,2.37
2018-06-19T13:49:06.216Z,2.10
2018-06-19T13:51:35.820Z,3.10
2018-06-19T13:54:05.479Z,2.60
2018-06-19T13:57:50.769Z,2.13
2018-06-19T14:00:21.749Z,2.20
2018-06-19T14:02:51.305Z,2.80
2018-06-19T14:05:21.212Z,2.13
2018-06-19T14:08:13.994Z,2.57
2018-06-19T14:11:00.349Z,1.83
2018-06-19T14:13:29.979Z,2.20
2018-06-19T14:16:01.982Z,2.50
2018-06-19T14:18:31.565Z,2.10
2018-06-19T14:21:03.084Z,1.80
2018-06-19T14:23:33.796Z,1.83
2018-06-19T14:26:03.759Z,2.80
2018-06-19T14:28:34.473Z,1.97
2018-06-19T14:31:04.006Z,2.70
2018-06-19T14:33:33.398Z,2.97
2018-06-19T14:36:04.387Z,2.27
2018-06-19T14:38:34.642Z,2.37
2018-06-19T14:41:04.487Z,3.03
2018-06-19T14:43:35.501Z,3.43
2018-06-19T14:46:05.899Z,2.83
2018-06-19T14:48:35.422Z,2.43
2018-06-19T14:51:05.294Z,2.43
2018-06-19T14:53:34.840Z,2.00
2018-06-19T14:56:04.304Z,2.33
2018-06-19T14:58:34.410Z,1.90
2018-06-19T15:01:03.902Z,2.77
2018-06-19T15:03:33.880Z,1.97
2018-06-19T15:06:03.394Z,2.03
2018-06-19T15:08:32.851Z,2.30
2018-06-19T15:11:03.371Z,2.20
2018-06-19T15:13:33.685Z,2.33
2018-06-19T15:16:03.730Z,1.77
2018-06-19T15:18:35.246Z,1.97
2018-06-19T15:21:05.628Z,2.70
2018-06-19T15:23:35.206Z,2.50
2018-06-19T15:26:06.347Z,1.83
2018-06-19T15:28:37.888Z,2.10
2018-06-19T15:31:08.864Z,2.37
2018-06-19T15:33:40.377Z,1.83
2018-06-19T15:36:10.375Z,1.90
2018-06-19T15:38:40.250Z,1.40
2018-06-19T15:41:10.015Z,1.93
2018-06-19T15:43:39.559Z,1.87
2018-06-19T15:46:09.437Z,1.50
2018-06-19T15:48:40.202Z,2.20
2018-06-19T15:51:11.132Z,1.57
2018-06-19T15:53:40.634Z,1.70
2018-06-19T15:56:10.264Z,1.20
2018-06-19T15:58:40.354Z,1.73
2018-06-19T16:01:09.995Z,1.90
2018-06-19T16:03:40.810Z,1.27
2018-06-19T16:06:11.306Z,1.30
2018-06-19T16:08:42.246Z,1.27
2018-06-19T16:11:12.008Z,1.80
2018-06-19T16:13:41.782Z,1.67
2018-06-19T16:16:13.165Z,1.50
2018-06-19T16:18:42.935Z,0.97
2018-06-19T16:21:12.508Z,1.13
2018-06-19T16:23:42.346Z,1.70
2018-06-19T16:26:12.172Z,1.93
2018-06-19T16:28:42.633Z,1.50
2018-06-19T16:31:12.520Z,1.20
2018-06-19T16:33:42.070Z,1.20
2018-06-19T16:36:11.512Z,1.47
2018-06-19T16:38:41.093Z,1.10
2018-06-19T16:41:10.851Z,1.17
2018-06-19T16:43:40.845Z,1.03
2018-06-19T16:46:10.385Z,0.90
2018-06-19T16:48:39.882Z,1.00
2018-06-19T16:51:09.636Z,1.03
2018-06-19T16:53:39.205Z,1.57
2018-06-19T16:56:08.682Z,1.40
2018-06-19T16:58:38.126Z,1.60
2018-06-19T17:01:08.464Z,1.10
2018-06-19T17:03:37.886Z,1.50
2018-06-19T17:06:07.365Z,1.17
2018-06-19T17:08:36.932Z,1.30
2018-06-19T17:11:06.677Z,1.87
2018-06-19T17:13:36.211Z,1.50
2018-06-19T17:16:06.125Z,1.40
2018-06-19T17:18:35.594Z,1.73
2018-06-19T17:21:05.055Z,1.20
2018-06-19T17:23:34.545Z,1.57
2018-06-19T17:26:04.141Z,1.30
2018-06-19T17:28:33.556Z,2.03
2018-06-19T17:31:03.316Z,1.50
2018-06-19T17:33:32.926Z,1.40
2018-06-19T17:36:02.585Z,1.20
2018-06-19T17:38:32.015Z,1.43
2018-06-19T17:41:01.332Z,1.50
2018-06-19T17:43:30.870Z,1.47
2018-06-19T17:46:00.480Z,1.83
2018-06-19T17:48:30.100Z,1.43
2018-06-19T17:51:00.161Z,1.50
2018-06-19T17:53:29.958Z,1.57
2018-06-19T17:56:00.116Z,1.70
2018-06-19T17:58:29.590Z,1.30
2018-06-19T18:00:59.060Z,1.73
2018-06-19T18:03:28.658Z,1.70
2018-06-19T18:05:58.672Z,1.67
2018-06-19T18:08:28.628Z,1.87
2018-06-19T18:12:27.501Z,1.80
2018-06-19T18:14:59.696Z,1.73
2018-06-19T18:17:29.780Z,3.43
2018-06-19T18:19:59.620Z,1.43
2018-06-19T18:22:30.853Z,2.27
2018-06-19T18:25:01.584Z,1.60
2018-06-19T18:27:31.294Z,1.50
2018-06-19T18:30:03.569Z,1.70
2018-06-19T18:32:33.050Z,1.70
2018-06-19T18:35:02.861Z,2.00
2018-06-19T18:37:33.420Z,2.00
2018-06-19T18:40:03.694Z,1.67
2018-06-19T18:42:34.035Z,1.83
2018-06-19T18:45:03.601Z,2.50
2018-06-19T18:47:34.081Z,1.57
2018-06-19T18:50:03.794Z,2.20
2018-06-19T18:52:33.851Z,2.80
2018-06-19T18:55:03.492Z,2.30
2018-06-19T18:57:36.494Z,2.10
2018-06-19T19:00:08.111Z,2.03
2018-06-19T19:02:38.804Z,1.60
2018-06-19T19:05:08.536Z,2.20
2018-06-19T19:07:39.777Z,2.10
2018-06-19T19:10:15.273Z,2.00
2018-06-19T19:12:45.069Z,2.47
2018-06-19T19:15:20.824Z,1.93
2018-06-19T19:17:56.993Z,2.47
2018-06-19T19:20:27.222Z,2.33
2018-06-19T19:22:58.074Z,2.27
2018-06-19T19:25:27.715Z,2.60
2018-06-19T19:28:02.731Z,2.00
2018-06-19T19:30:32.578Z,2.30
2018-06-19T19:33:04.253Z,2.43
2018-06-19T19:35:33.905Z,2.63
2018-06-19T19:38:08.705Z,2.10
2018-06-19T19:40:38.454Z,2.50
2018-06-19T19:43:07.783Z,2.83
2018-06-19T19:45:37.347Z,2.30
2018-06-19T19:48:12.151Z,2.33
2018-06-19T19:50:42.889Z,2.50
2018-06-19T19:53:14.172Z,2.20
2018-06-19T19:55:49.369Z,2.27
2018-06-19T19:58:24.093Z,2.33
2018-06-19T20:00:53.738Z,2.07
2018-06-19T20:03:24.449Z,2.00
2018-06-19T20:05:55.058Z,2.70
2018-06-19T20:08:26.687Z,2.33
2018-06-19T20:10:57.434Z,2.53
2018-06-19T20:13:27.296Z,2.17
2018-06-19T20:15:59.077Z,2.67
2018-06-19T20:18:28.914Z,3.27
2018-06-19T20:20:59.527Z,2.87
2018-06-19T20:23:29.359Z,2.30
2018-06-19T20:25:59.034Z,3.17
2018-06-19T20:28:30.085Z,2.53
2018-06-19T20:30:59.402Z,2.57
2018-06-19T20:33:30.341Z,2.80
2018-06-19T20:36:00.539Z,2.90
2018-06-19T20:38:30.454Z,2.57
2018-06-19T20:40:59.952Z,3.03
2018-06-19T20:43:30.669Z,2.37
2018-06-19T20:46:00.975Z,2.70
2018-06-19T20:48:30.538Z,3.57
2018-06-19T20:50:59.987Z,2.60
2018-06-19T20:53:30.631Z,2.20
2018-06-19T20:56:00.766Z,2.47
2018-06-19T20:58:30.905Z,2.40
2018-06-19T21:01:00.779Z,2.90
2018-06-19T21:03:31.115Z,2.10
2018-06-19T21:06:04.661Z,2.90
2018-06-19T21:08:35.870Z,2.63
2018-06-19T21:11:05.617Z,3.30
2018-06-19T21:13:36.032Z,2.37
2018-06-19T21:16:09.888Z,2.83
2018-06-19T21:18:41.205Z,3.50
2018-06-19T21:21:11.123Z,2.83
2018-06-19T21:23:41.691Z,2.77
2018-06-19T21:26:16.470Z,3.10
2018-06-19T21:28:46.207Z,2.83
2018-06-19T21:31:17.633Z,2.93
2018-06-19T21:33:47.774Z,3.50
2018-06-19T21:36:18.225Z,3.40
2018-06-19T21:38:48.103Z,3.20
2018-06-19T21:41:18.591Z,2.90
2018-06-19T21:43:48.393Z,3.20
2018-06-19T21:46:18.144Z,3.07
2018-06-19T21:48:47.873Z,2.70
2018-06-19T21:51:17.904Z,3.30
2018-06-19T21:53:48.655Z,3.17
2018-06-19T21:56:20.243Z,2.70
2018-06-19T21:58:50.031Z,3.17
2018-06-19T22:01:20.580Z,3.50
2018-06-19T22:03:50.452Z,2.90
2018-06-19T22:06:20.856Z,3.30
2018-06-19T22:08:53.615Z,2.80
2018-06-19T22:11:25.269Z,3.23
2018-06-19T22:13:56.195Z,4.20
2018-06-19T22:16:25.932Z,3.70
2018-06-19T22:18:56.628Z,3.50
2018-06-19T22:21:26.452Z,4.13
2018-06-19T22:23:56.856Z,2.97
2018-06-19T22:26:26.972Z,2.90
2018-06-19T22:28:56.990Z,2.80
2018-06-19T22:31:26.629Z,2.80
2018-06-19T22:33:56.724Z,3.10
2018-06-19T22:36:26.921Z,2.40
2018-06-19T22:38:56.877Z,3.10
2018-06-19T22:41:26.542Z,2.90
2018-06-19T22:43:57.536Z,3.17
2018-06-19T22:46:27.497Z,3.00
2018-06-19T22:48:58.207Z,3.20
2018-06-19T22:51:29.803Z,3.00
2018-06-19T22:53:59.592Z,4.03
2018-06-19T22:56:29.321Z,3.50
2018-06-19T22:59:00.077Z,4.63
2018-06-19T23:01:29.933Z,3.80
2018-06-19T23:04:00.027Z,4.00
2018-06-19T23:06:31.084Z,3.93
2018-06-19T23:09:00.865Z,4.20
2018-06-19T23:11:30.231Z,3.77
2018-06-19T23:14:00.323Z,4.00
2018-06-19T23:16:30.091Z,3.47
2018-06-19T23:18:59.484Z,3.87
2018-06-19T23:21:29.173Z,3.57
2018-06-19T23:23:59.186Z,5.10
2018-06-19T23:26:28.751Z,3.93
2018-06-19T23:28:58.813Z,4.17
2018-06-19T23:31:29.153Z,4.30
2018-06-19T23:33:59.513Z,4.40
2018-06-19T23:36:29.146Z,4.53
2018-06-19T23:38:59.430Z,5.20
2018-06-19T23:41:29.227Z,4.57
2018-06-19T23:43:58.904Z,3.97
2018-06-19T23:46:29.271Z,4.20
2018-06-19T23:48:59.506Z,4.63
2018-06-19T23:51:30.094Z,3.80
2018-06-19T23:53:59.830Z,4.50
2018-06-19T23:56:30.768Z,4.27
2018-06-19T23:59:00.563Z,4.90
